sensor_id;sensor_type;location;lat;lon;timestamp;P1;durP1;ratioP1;P2;durP2;ratioP2
75062;SDS011;63981;51.052;13.754;2023-02-19T00:01:59;2.78;;;1.50;;
75062;SDS011;63981;51.052;13.754;2023-02-19T00:04:25;4.82;;;1.58;;
75062;SDS011;63981;51.052;13.754;2023-02-19T00:06:51;2.42;;;1.50;;
75062;SDS011;63981;51.052;13.754;2023-02-19T00:09:18;3.85;;;1.70;;
75062;SDS011;63981;51.052;13.754;2023-02-19T00:11:45;5.50;;;1.58;;
75062;SDS011;63981;51.052;13.754;2023-02-19T00:14:14;2.70;;;1.55;;
75062;SDS011;63981;51.052;13.754;2023-02-19T00:16:42;3.30;;;1.60;;
75062;SDS011;63981;51.052;13.754;2023-02-19T00:19:11;2.38;;;1.48;;
75062;SDS011;63981;51.052;13.754;2023-02-19T00:21:39;2.47;;;1.20;;
75062;SDS011;63981;51.052;13.754;2023-02-19T00:24:06;2.33;;;1.38;;
75062;SDS011;63981;51.052;13.754;2023-02-19T00:26:36;2.38;;;1.23;;
75062;SDS011;63981;51.052;13.754;2023-02-19T00:29:04;4.10;;;1.52;;
75062;SDS011;63981;51.052;13.754;2023-02-19T00:31:32;2.50;;;1.33;;
75062;SDS011;63981;51.052;13.754;2023-02-19T00:34:00;2.92;;;1.27;;
75062;SDS011;63981;51.052;13.754;2023-02-19T00:36:28;2.00;;;1.35;;
75062;SDS011;63981;51.052;13.754;2023-02-19T00:38:55;3.97;;;1.55;;
75062;SDS011;63981;51.052;13.754;2023-02-19T00:41:22;3.28;;;1.40;;
75062;SDS011;63981;51.052;13.754;2023-02-19T00:43:50;4.75;;;1.75;;
75062;SDS011;63981;51.052;13.754;2023-02-19T00:46:21;3.20;;;1.50;;
75062;SDS011;63981;51.052;13.754;2023-02-19T00:49:10;4.72;;;1.45;;
75062;SDS011;63981;51.052;13.754;2023-02-19T00:51:40;2.78;;;1.40;;
75062;SDS011;63981;51.052;13.754;2023-02-19T00:54:06;3.45;;;1.55;;
75062;SDS011;63981;51.052;13.754;2023-02-19T00:56:33;3.13;;;1.40;;
75062;SDS011;63981;51.052;13.754;2023-02-19T00:58:59;4.15;;;1.45;;
75062;SDS011;63981;51.052;13.754;2023-02-19T01:01:25;2.47;;;1.75;;
75062;SDS011;63981;51.052;13.754;2023-02-19T01:03:51;2.20;;;1.35;;
75062;SDS011;63981;51.052;13.754;2023-02-19T01:06:18;4.00;;;1.52;;
75062;SDS011;63981;51.052;13.754;2023-02-19T01:08:45;5.13;;;2.00;;
75062;SDS011;63981;51.052;13.754;2023-02-19T01:11:11;2.05;;;1.10;;
75062;SDS011;63981;51.052;13.754;2023-02-19T01:13:38;2.58;;;1.35;;
75062;SDS011;63981;51.052;13.754;2023-02-19T01:18:39;3.53;;;1.35;;
75062;SDS011;63981;51.052;13.754;2023-02-19T01:21:06;2.45;;;1.10;;
75062;SDS011;63981;51.052;13.754;2023-02-19T01:23:34;3.22;;;1.10;;
75062;SDS011;63981;51.052;13.754;2023-02-19T01:26:08;1.85;;;1.33;;
75062;SDS011;63981;51.052;13.754;2023-02-19T01:28:37;2.80;;;1.00;;
75062;SDS011;63981;51.052;13.754;2023-02-19T01:31:04;1.85;;;0.80;;
75062;SDS011;63981;51.052;13.754;2023-02-19T01:35:58;2.97;;;1.17;;
75062;SDS011;63981;51.052;13.754;2023-02-19T01:38:25;1.80;;;1.00;;
75062;SDS011;63981;51.052;13.754;2023-02-19T01:40:58;1.83;;;0.82;;
75062;SDS011;63981;51.052;13.754;2023-02-19T01:43:27;2.70;;;0.98;;
75062;SDS011;63981;51.052;13.754;2023-02-19T01:45:53;2.00;;;1.05;;
75062;SDS011;63981;51.052;13.754;2023-02-19T01:48:22;2.95;;;1.25;;
75062;SDS011;63981;51.052;13.754;2023-02-19T01:53:40;4.53;;;1.63;;
75062;SDS011;63981;51.052;13.754;2023-02-19T01:56:12;2.20;;;1.40;;
75062;SDS011;63981;51.052;13.754;2023-02-19T01:58:43;2.05;;;1.45;;
75062;SDS011;63981;51.052;13.754;2023-02-19T02:01:10;2.47;;;1.52;;
75062;SDS011;63981;51.052;13.754;2023-02-19T02:03:37;2.05;;;1.40;;
75062;SDS011;63981;51.052;13.754;2023-02-19T02:06:17;2.45;;;1.20;;
75062;SDS011;63981;51.052;13.754;2023-02-19T02:08:50;2.05;;;1.45;;
75062;SDS011;63981;51.052;13.754;2023-02-19T02:11:49;3.45;;;1.23;;
75062;SDS011;63981;51.052;13.754;2023-02-19T02:14:17;2.20;;;1.10;;
75062;SDS011;63981;51.052;13.754;2023-02-19T02:36:09;1.38;;;0.60;;
75062;SDS011;63981;51.052;13.754;2023-02-19T02:38:42;1.63;;;0.88;;
75062;SDS011;63981;51.052;13.754;2023-02-19T02:41:12;1.45;;;0.77;;
75062;SDS011;63981;51.052;13.754;2023-02-19T02:43:40;0.85;;;0.60;;
75062;SDS011;63981;51.052;13.754;2023-02-19T02:46:11;1.58;;;0.70;;
75062;SDS011;63981;51.052;13.754;2023-02-19T02:53:43;1.70;;;0.82;;
75062;SDS011;63981;51.052;13.754;2023-02-19T02:56:34;1.05;;;0.50;;
75062;SDS011;63981;51.052;13.754;2023-02-19T02:59:03;1.50;;;0.82;;
75062;SDS011;63981;51.052;13.754;2023-02-19T03:01:41;0.90;;;0.40;;
75062;SDS011;63981;51.052;13.754;2023-02-19T03:07:03;1.52;;;0.70;;
75062;SDS011;63981;51.052;13.754;2023-02-19T03:09:36;0.88;;;0.25;;
75062;SDS011;63981;51.052;13.754;2023-02-19T03:12:11;1.30;;;0.60;;
75062;SDS011;63981;51.052;13.754;2023-02-19T03:15:00;0.70;;;0.40;;
75062;SDS011;63981;51.052;13.754;2023-02-19T03:17:54;1.77;;;0.50;;
75062;SDS011;63981;51.052;13.754;2023-02-19T03:20:47;1.65;;;0.40;;
75062;SDS011;63981;51.052;13.754;2023-02-19T03:23:19;0.60;;;0.40;;
75062;SDS011;63981;51.052;13.754;2023-02-19T03:25:46;1.38;;;0.50;;
75062;SDS011;63981;51.052;13.754;2023-02-19T03:28:43;0.95;;;0.30;;
75062;SDS011;63981;51.052;13.754;2023-02-19T03:31:30;0.68;;;0.32;;
75062;SDS011;63981;51.052;13.754;2023-02-19T03:34:04;1.55;;;0.55;;
75062;SDS011;63981;51.052;13.754;2023-02-19T03:36:37;0.77;;;0.40;;
75062;SDS011;63981;51.052;13.754;2023-02-19T03:39:08;1.00;;;0.50;;
75062;SDS011;63981;51.052;13.754;2023-02-19T03:47:24;0.77;;;0.50;;
75062;SDS011;63981;51.052;13.754;2023-02-19T03:49:58;1.33;;;0.50;;
75062;SDS011;63981;51.052;13.754;2023-02-19T03:55:11;1.20;;;0.60;;
75062;SDS011;63981;51.052;13.754;2023-02-19T04:03:16;1.52;;;0.60;;
75062;SDS011;63981;51.052;13.754;2023-02-19T04:05:46;0.65;;;0.28;;
75062;SDS011;63981;51.052;13.754;2023-02-19T04:08:18;0.47;;;0.20;;
75062;SDS011;63981;51.052;13.754;2023-02-19T04:10:55;0.55;;;0.22;;
75062;SDS011;63981;51.052;13.754;2023-02-19T04:13:29;0.88;;;0.50;;
75062;SDS011;63981;51.052;13.754;2023-02-19T04:16:00;0.30;;;0.20;;
75062;SDS011;63981;51.052;13.754;2023-02-19T04:18:32;0.50;;;0.30;;
75062;SDS011;63981;51.052;13.754;2023-02-19T04:21:02;0.47;;;0.20;;
75062;SDS011;63981;51.052;13.754;2023-02-19T04:23:32;1.70;;;0.17;;
75062;SDS011;63981;51.052;13.754;2023-02-19T04:26:03;0.93;;;0.10;;
75062;SDS011;63981;51.052;13.754;2023-02-19T04:28:31;1.42;;;0.30;;
75062;SDS011;63981;51.052;13.754;2023-02-19T04:30:57;1.27;;;0.30;;
75062;SDS011;63981;51.052;13.754;2023-02-19T04:33:24;0.93;;;0.10;;
75062;SDS011;63981;51.052;13.754;2023-02-19T04:35:50;0.75;;;0.20;;
75062;SDS011;63981;51.052;13.754;2023-02-19T04:38:16;0.35;;;0.10;;
75062;SDS011;63981;51.052;13.754;2023-02-19T04:40:42;0.10;;;0.10;;
75062;SDS011;63981;51.052;13.754;2023-02-19T04:43:09;1.08;;;0.10;;
75062;SDS011;63981;51.052;13.754;2023-02-19T04:45:38;0.43;;;0.10;;
75062;SDS011;63981;51.052;13.754;2023-02-19T04:48:04;0.30;;;0.20;;
75062;SDS011;63981;51.052;13.754;2023-02-19T04:50:30;0.28;;;0.10;;
75062;SDS011;63981;51.052;13.754;2023-02-19T04:52:57;0.28;;;0.10;;
75062;SDS011;63981;51.052;13.754;2023-02-19T04:55:23;0.32;;;0.08;;
75062;SDS011;63981;51.052;13.754;2023-02-19T04:57:49;0.75;;;0.10;;
75062;SDS011;63981;51.052;13.754;2023-02-19T05:00:15;0.40;;;0.10;;
75062;SDS011;63981;51.052;13.754;2023-02-19T05:02:41;0.75;;;0.10;;
75062;SDS011;63981;51.052;13.754;2023-02-19T05:05:08;1.02;;;0.10;;
75062;SDS011;63981;51.052;13.754;2023-02-19T05:07:34;0.82;;;0.20;;
75062;SDS011;63981;51.052;13.754;2023-02-19T05:10:00;0.32;;;0.10;;
75062;SDS011;63981;51.052;13.754;2023-02-19T05:12:28;0.25;;;0.10;;
75062;SDS011;63981;51.052;13.754;2023-02-19T05:14:54;0.28;;;0.10;;
75062;SDS011;63981;51.052;13.754;2023-02-19T05:17:21;0.47;;;0.20;;
75062;SDS011;63981;51.052;13.754;2023-02-19T05:19:47;0.45;;;0.17;;
75062;SDS011;63981;51.052;13.754;2023-02-19T05:22:13;0.60;;;0.20;;
75062;SDS011;63981;51.052;13.754;2023-02-19T05:24:39;0.45;;;0.20;;
75062;SDS011;63981;51.052;13.754;2023-02-19T05:27:05;1.17;;;0.20;;
75062;SDS011;63981;51.052;13.754;2023-02-19T05:29:32;0.75;;;0.20;;
75062;SDS011;63981;51.052;13.754;2023-02-19T05:31:58;0.30;;;0.10;;
75062;SDS011;63981;51.052;13.754;2023-02-19T05:34:24;0.98;;;0.32;;
75062;SDS011;63981;51.052;13.754;2023-02-19T05:36:50;0.45;;;0.10;;
75062;SDS011;63981;51.052;13.754;2023-02-19T05:39:16;0.95;;;0.30;;
75062;SDS011;63981;51.052;13.754;2023-02-19T05:41:43;0.43;;;0.05;;
75062;SDS011;63981;51.052;13.754;2023-02-19T05:44:09;0.65;;;0.17;;
75062;SDS011;63981;51.052;13.754;2023-02-19T05:46:36;0.20;;;0.10;;
75062;SDS011;63981;51.052;13.754;2023-02-19T05:49:02;1.55;;;0.10;;
75062;SDS011;63981;51.052;13.754;2023-02-19T05:51:29;0.80;;;0.38;;
75062;SDS011;63981;51.052;13.754;2023-02-19T05:53:55;0.13;;;0.03;;
75062;SDS011;63981;51.052;13.754;2023-02-19T05:58:51;0.22;;;0.10;;
75062;SDS011;63981;51.052;13.754;2023-02-19T06:01:18;0.13;;;0.08;;
75062;SDS011;63981;51.052;13.754;2023-02-19T06:03:46;0.17;;;0.08;;
75062;SDS011;63981;51.052;13.754;2023-02-19T06:06:12;1.27;;;0.10;;
75062;SDS011;63981;51.052;13.754;2023-02-19T06:08:40;0.40;;;0.10;;
75062;SDS011;63981;51.052;13.754;2023-02-19T06:11:06;0.30;;;0.10;;
75062;SDS011;63981;51.052;13.754;2023-02-19T06:13:33;0.52;;;0.10;;
75062;SDS011;63981;51.052;13.754;2023-02-19T06:16:02;0.28;;;0.10;;
75062;SDS011;63981;51.052;13.754;2023-02-19T06:18:29;0.10;;;0.00;;
75062;SDS011;63981;51.052;13.754;2023-02-19T06:21:05;0.40;;;0.35;;
75062;SDS011;63981;51.052;13.754;2023-02-19T06:23:34;0.95;;;0.20;;
75062;SDS011;63981;51.052;13.754;2023-02-19T06:26:19;0.40;;;0.10;;
75062;SDS011;63981;51.052;13.754;2023-02-19T06:28:49;0.30;;;0.10;;
75062;SDS011;63981;51.052;13.754;2023-02-19T06:33:44;0.35;;;0.10;;
75062;SDS011;63981;51.052;13.754;2023-02-19T06:36:11;0.15;;;0.00;;
75062;SDS011;63981;51.052;13.754;2023-02-19T06:38:40;1.05;;;0.10;;
75062;SDS011;63981;51.052;13.754;2023-02-19T06:41:07;0.03;;;0.00;;
75062;SDS011;63981;51.052;13.754;2023-02-19T06:43:34;0.30;;;0.10;;
75062;SDS011;63981;51.052;13.754;2023-02-19T06:46:01;0.28;;;0.10;;
75062;SDS011;63981;51.052;13.754;2023-02-19T06:48:29;0.50;;;0.13;;
75062;SDS011;63981;51.052;13.754;2023-02-19T06:50:56;0.20;;;0.10;;
75062;SDS011;63981;51.052;13.754;2023-02-19T06:53:22;1.02;;;0.10;;
75062;SDS011;63981;51.052;13.754;2023-02-19T06:55:56;0.20;;;0.10;;
75062;SDS011;63981;51.052;13.754;2023-02-19T06:58:31;0.20;;;0.10;;
75062;SDS011;63981;51.052;13.754;2023-02-19T07:00:58;1.05;;;0.30;;
75062;SDS011;63981;51.052;13.754;2023-02-19T07:03:25;0.30;;;0.10;;
75062;SDS011;63981;51.052;13.754;2023-02-19T07:05:51;1.10;;;0.20;;
75062;SDS011;63981;51.052;13.754;2023-02-19T07:08:17;0.55;;;0.20;;
75062;SDS011;63981;51.052;13.754;2023-02-19T07:10:44;0.22;;;0.17;;
75062;SDS011;63981;51.052;13.754;2023-02-19T07:13:10;2.78;;;0.30;;
75062;SDS011;63981;51.052;13.754;2023-02-19T07:15:37;2.00;;;0.50;;
75062;SDS011;63981;51.052;13.754;2023-02-19T07:18:03;1.27;;;0.30;;
75062;SDS011;63981;51.052;13.754;2023-02-19T07:20:31;0.30;;;0.20;;
75062;SDS011;63981;51.052;13.754;2023-02-19T07:22:58;0.30;;;0.20;;
75062;SDS011;63981;51.052;13.754;2023-02-19T07:25:24;0.32;;;0.20;;
75062;SDS011;63981;51.052;13.754;2023-02-19T07:27:50;0.63;;;0.20;;
75062;SDS011;63981;51.052;13.754;2023-02-19T07:30:16;0.30;;;0.20;;
75062;SDS011;63981;51.052;13.754;2023-02-19T07:32:42;1.00;;;0.50;;
75062;SDS011;63981;51.052;13.754;2023-02-19T07:35:10;0.55;;;0.32;;
75062;SDS011;63981;51.052;13.754;2023-02-19T07:37:36;0.40;;;0.22;;
75062;SDS011;63981;51.052;13.754;2023-02-19T07:40:03;0.22;;;0.10;;
75062;SDS011;63981;51.052;13.754;2023-02-19T07:42:29;0.30;;;0.30;;
75062;SDS011;63981;51.052;13.754;2023-02-19T07:44:56;0.30;;;0.20;;
75062;SDS011;63981;51.052;13.754;2023-02-19T07:47:22;0.38;;;0.20;;
75062;SDS011;63981;51.052;13.754;2023-02-19T07:49:48;0.50;;;0.20;;
75062;SDS011;63981;51.052;13.754;2023-02-19T07:52:14;0.68;;;0.52;;
75062;SDS011;63981;51.052;13.754;2023-02-19T07:54:40;0.68;;;0.40;;
75062;SDS011;63981;51.052;13.754;2023-02-19T07:57:07;0.40;;;0.30;;
75062;SDS011;63981;51.052;13.754;2023-02-19T07:59:33;0.52;;;0.52;;
75062;SDS011;63981;51.052;13.754;2023-02-19T08:01:59;1.13;;;0.40;;
75062;SDS011;63981;51.052;13.754;2023-02-19T08:04:45;0.68;;;0.30;;
75062;SDS011;63981;51.052;13.754;2023-02-19T08:07:12;0.20;;;0.20;;
75062;SDS011;63981;51.052;13.754;2023-02-19T08:09:38;0.75;;;0.30;;
75062;SDS011;63981;51.052;13.754;2023-02-19T08:12:05;0.57;;;0.30;;
75062;SDS011;63981;51.052;13.754;2023-02-19T08:14:49;0.60;;;0.40;;
75062;SDS011;63981;51.052;13.754;2023-02-19T08:17:15;0.82;;;0.40;;
75062;SDS011;63981;51.052;13.754;2023-02-19T08:19:42;0.60;;;0.43;;
75062;SDS011;63981;51.052;13.754;2023-02-19T08:22:08;0.85;;;0.52;;
75062;SDS011;63981;51.052;13.754;2023-02-19T08:24:34;0.98;;;0.50;;
75062;SDS011;63981;51.052;13.754;2023-02-19T08:27:02;0.80;;;0.45;;
75062;SDS011;63981;51.052;13.754;2023-02-19T08:29:28;0.85;;;0.50;;
75062;SDS011;63981;51.052;13.754;2023-02-19T08:31:55;0.35;;;0.35;;
75062;SDS011;63981;51.052;13.754;2023-02-19T08:34:21;0.60;;;0.40;;
75062;SDS011;63981;51.052;13.754;2023-02-19T08:36:47;0.70;;;0.40;;
75062;SDS011;63981;51.052;13.754;2023-02-19T08:39:13;0.47;;;0.40;;
75062;SDS011;63981;51.052;13.754;2023-02-19T08:41:39;0.68;;;0.50;;
75062;SDS011;63981;51.052;13.754;2023-02-19T08:44:06;0.80;;;0.60;;
75062;SDS011;63981;51.052;13.754;2023-02-19T08:46:32;1.38;;;0.77;;
75062;SDS011;63981;51.052;13.754;2023-02-19T08:48:58;0.70;;;0.60;;
75062;SDS011;63981;51.052;13.754;2023-02-19T08:51:24;0.70;;;0.55;;
75062;SDS011;63981;51.052;13.754;2023-02-19T08:53:51;0.70;;;0.50;;
75062;SDS011;63981;51.052;13.754;2023-02-19T08:56:17;0.85;;;0.40;;
75062;SDS011;63981;51.052;13.754;2023-02-19T08:58:43;0.68;;;0.52;;
75062;SDS011;63981;51.052;13.754;2023-02-19T09:01:11;1.65;;;0.60;;
75062;SDS011;63981;51.052;13.754;2023-02-19T09:03:39;0.82;;;0.55;;
75062;SDS011;63981;51.052;13.754;2023-02-19T09:06:06;3.08;;;0.60;;
75062;SDS011;63981;51.052;13.754;2023-02-19T09:08:32;0.85;;;0.50;;
75062;SDS011;63981;51.052;13.754;2023-02-19T09:10:59;1.15;;;0.55;;
75062;SDS011;63981;51.052;13.754;2023-02-19T09:13:26;0.60;;;0.60;;
75062;SDS011;63981;51.052;13.754;2023-02-19T09:15:52;0.65;;;0.50;;
75062;SDS011;63981;51.052;13.754;2023-02-19T09:18:19;0.93;;;0.60;;
75062;SDS011;63981;51.052;13.754;2023-02-19T09:20:45;1.05;;;0.60;;
75062;SDS011;63981;51.052;13.754;2023-02-19T09:23:11;0.85;;;0.52;;
75062;SDS011;63981;51.052;13.754;2023-02-19T09:25:37;1.13;;;0.40;;
75062;SDS011;63981;51.052;13.754;2023-02-19T09:28:03;0.80;;;0.50;;
75062;SDS011;63981;51.052;13.754;2023-02-19T09:30:30;1.02;;;0.60;;
75062;SDS011;63981;51.052;13.754;2023-02-19T09:32:56;0.68;;;0.60;;
75062;SDS011;63981;51.052;13.754;2023-02-19T09:35:22;1.63;;;0.57;;
75062;SDS011;63981;51.052;13.754;2023-02-19T09:37:48;0.80;;;0.50;;
75062;SDS011;63981;51.052;13.754;2023-02-19T09:40:15;1.30;;;0.50;;
75062;SDS011;63981;51.052;13.754;2023-02-19T09:42:46;0.63;;;0.20;;
75062;SDS011;63981;51.052;13.754;2023-02-19T09:45:21;0.55;;;0.30;;
75062;SDS011;63981;51.052;13.754;2023-02-19T09:47:52;0.98;;;0.30;;
75062;SDS011;63981;51.052;13.754;2023-02-19T09:50:22;1.13;;;0.40;;
75062;SDS011;63981;51.052;13.754;2023-02-19T09:52:57;3.28;;;0.80;;
75062;SDS011;63981;51.052;13.754;2023-02-19T09:55:33;1.08;;;0.50;;
75062;SDS011;63981;51.052;13.754;2023-02-19T09:58:16;1.00;;;0.40;;
75062;SDS011;63981;51.052;13.754;2023-02-19T10:00:59;0.65;;;0.40;;
75062;SDS011;63981;51.052;13.754;2023-02-19T10:03:28;0.75;;;0.40;;
75062;SDS011;63981;51.052;13.754;2023-02-19T10:08:49;1.25;;;0.43;;
75062;SDS011;63981;51.052;13.754;2023-02-19T10:11:17;0.77;;;0.60;;
75062;SDS011;63981;51.052;13.754;2023-02-19T10:13:44;1.10;;;0.50;;
75062;SDS011;63981;51.052;13.754;2023-02-19T10:16:18;0.75;;;0.38;;
75062;SDS011;63981;51.052;13.754;2023-02-19T10:18:49;1.10;;;0.60;;
75062;SDS011;63981;51.052;13.754;2023-02-19T10:21:16;1.45;;;0.60;;
75062;SDS011;63981;51.052;13.754;2023-02-19T10:23:46;1.23;;;0.60;;
75062;SDS011;63981;51.052;13.754;2023-02-19T10:26:15;1.13;;;0.40;;
75062;SDS011;63981;51.052;13.754;2023-02-19T10:28:42;1.25;;;0.35;;
75062;SDS011;63981;51.052;13.754;2023-02-19T10:31:19;1.63;;;0.30;;
75062;SDS011;63981;51.052;13.754;2023-02-19T10:33:53;1.75;;;0.40;;
75062;SDS011;63981;51.052;13.754;2023-02-19T10:36:25;1.30;;;0.50;;
75062;SDS011;63981;51.052;13.754;2023-02-19T10:39:03;0.88;;;0.35;;
75062;SDS011;63981;51.052;13.754;2023-02-19T10:41:48;1.17;;;0.38;;
75062;SDS011;63981;51.052;13.754;2023-02-19T10:47:08;1.05;;;0.40;;
75062;SDS011;63981;51.052;13.754;2023-02-19T10:49:46;1.50;;;0.68;;
75062;SDS011;63981;51.052;13.754;2023-02-19T10:54:56;0.98;;;0.50;;
75062;SDS011;63981;51.052;13.754;2023-02-19T10:57:38;1.92;;;0.60;;
75062;SDS011;63981;51.052;13.754;2023-02-19T11:00:24;0.90;;;0.60;;
75062;SDS011;63981;51.052;13.754;2023-02-19T11:05:59;1.58;;;0.85;;
75062;SDS011;63981;51.052;13.754;2023-02-19T11:08:28;0.85;;;0.43;;
75062;SDS011;63981;51.052;13.754;2023-02-19T11:10:55;1.27;;;0.57;;
75062;SDS011;63981;51.052;13.754;2023-02-19T11:13:26;0.68;;;0.45;;
75062;SDS011;63981;51.052;13.754;2023-02-19T11:15:57;1.42;;;0.43;;
75062;SDS011;63981;51.052;13.754;2023-02-19T11:18:29;1.70;;;0.50;;
75062;SDS011;63981;51.052;13.754;2023-02-19T11:21:01;0.50;;;0.30;;
75062;SDS011;63981;51.052;13.754;2023-02-19T11:23:51;0.98;;;0.35;;
75062;SDS011;63981;51.052;13.754;2023-02-19T11:26:20;1.02;;;0.47;;
75062;SDS011;63981;51.052;13.754;2023-02-19T11:28:56;1.20;;;0.32;;
75062;SDS011;63981;51.052;13.754;2023-02-19T11:31:28;1.23;;;0.50;;
75062;SDS011;63981;51.052;13.754;2023-02-19T11:36:29;1.25;;;0.38;;
75062;SDS011;63981;51.052;13.754;2023-02-19T11:47:15;1.20;;;0.43;;
75062;SDS011;63981;51.052;13.754;2023-02-19T11:52:28;2.58;;;0.60;;
75062;SDS011;63981;51.052;13.754;2023-02-19T12:06:52;1.75;;;0.65;;
75062;SDS011;63981;51.052;13.754;2023-02-19T12:14:55;1.83;;;0.57;;
75062;SDS011;63981;51.052;13.754;2023-02-19T12:20:08;1.67;;;0.50;;
75062;SDS011;63981;51.052;13.754;2023-02-19T12:22:45;0.90;;;0.40;;
75062;SDS011;63981;51.052;13.754;2023-02-19T12:28:00;2.17;;;0.77;;
75062;SDS011;63981;51.052;13.754;2023-02-19T12:39:20;1.42;;;0.52;;
75062;SDS011;63981;51.052;13.754;2023-02-19T12:45:00;1.33;;;0.60;;
75062;SDS011;63981;51.052;13.754;2023-02-19T12:47:34;3.72;;;0.77;;
75062;SDS011;63981;51.052;13.754;2023-02-19T12:52:38;1.08;;;0.45;;
75062;SDS011;63981;51.052;13.754;2023-02-19T12:55:21;1.60;;;0.40;;
75062;SDS011;63981;51.052;13.754;2023-02-19T12:57:51;1.52;;;0.50;;
75062;SDS011;63981;51.052;13.754;2023-02-19T13:04:04;2.53;;;0.43;;
75062;SDS011;63981;51.052;13.754;2023-02-19T13:06:10;1.63;;;0.50;;
75062;SDS011;63981;51.052;13.754;2023-02-19T13:11:30;1.90;;;0.45;;
75062;SDS011;63981;51.052;13.754;2023-02-19T13:14:05;2.78;;;0.68;;
75062;SDS011;63981;51.052;13.754;2023-02-19T13:16:44;1.48;;;0.30;;
75062;SDS011;63981;51.052;13.754;2023-02-19T13:19:14;3.33;;;0.70;;
75062;SDS011;63981;51.052;13.754;2023-02-19T13:21:41;3.53;;;0.82;;
75062;SDS011;63981;51.052;13.754;2023-02-19T13:24:33;1.15;;;0.30;;
75062;SDS011;63981;51.052;13.754;2023-02-19T13:35:42;1.08;;;0.38;;
75062;SDS011;63981;51.052;13.754;2023-02-19T13:38:31;2.58;;;0.50;;
75062;SDS011;63981;51.052;13.754;2023-02-19T13:41:02;3.00;;;0.50;;
75062;SDS011;63981;51.052;13.754;2023-02-19T13:43:30;2.88;;;0.50;;
75062;SDS011;63981;51.052;13.754;2023-02-19T13:46:07;1.23;;;0.30;;
75062;SDS011;63981;51.052;13.754;2023-02-19T13:48:36;1.10;;;0.40;;
75062;SDS011;63981;51.052;13.754;2023-02-19T13:51:47;1.15;;;0.40;;
75062;SDS011;63981;51.052;13.754;2023-02-19T13:56:34;1.85;;;0.55;;
75062;SDS011;63981;51.052;13.754;2023-02-19T14:12:08;1.98;;;0.47;;
75062;SDS011;63981;51.052;13.754;2023-02-19T14:14:43;1.92;;;0.30;;
75062;SDS011;63981;51.052;13.754;2023-02-19T14:25:57;1.55;;;0.40;;
75062;SDS011;63981;51.052;13.754;2023-02-19T14:30:50;4.25;;;0.77;;
75062;SDS011;63981;51.052;13.754;2023-02-19T14:33:18;1.33;;;0.40;;
75062;SDS011;63981;51.052;13.754;2023-02-19T14:35:50;1.30;;;0.50;;
75062;SDS011;63981;51.052;13.754;2023-02-19T14:40:57;2.55;;;0.60;;
75062;SDS011;63981;51.052;13.754;2023-02-19T14:43:25;2.33;;;0.45;;
75062;SDS011;63981;51.052;13.754;2023-02-19T14:45:57;2.42;;;0.43;;
75062;SDS011;63981;51.052;13.754;2023-02-19T14:48:30;1.20;;;0.47;;
75062;SDS011;63981;51.052;13.754;2023-02-19T14:51:03;1.10;;;0.50;;
75062;SDS011;63981;51.052;13.754;2023-02-19T14:53:35;1.95;;;0.50;;
75062;SDS011;63981;51.052;13.754;2023-02-19T14:56:04;1.75;;;0.50;;
75062;SDS011;63981;51.052;13.754;2023-02-19T14:58:40;2.65;;;0.50;;
75062;SDS011;63981;51.052;13.754;2023-02-19T15:01:23;2.50;;;0.55;;
75062;SDS011;63981;51.052;13.754;2023-02-19T15:03:52;1.45;;;0.52;;
75062;SDS011;63981;51.052;13.754;2023-02-19T15:06:20;1.52;;;0.40;;
75062;SDS011;63981;51.052;13.754;2023-02-19T15:08:49;2.47;;;0.60;;
75062;SDS011;63981;51.052;13.754;2023-02-19T15:11:19;1.55;;;0.40;;
75062;SDS011;63981;51.052;13.754;2023-02-19T15:13:49;3.10;;;0.50;;
75062;SDS011;63981;51.052;13.754;2023-02-19T15:16:17;1.67;;;0.70;;
75062;SDS011;63981;51.052;13.754;2023-02-19T15:18:46;1.65;;;0.63;;
75062;SDS011;63981;51.052;13.754;2023-02-19T15:21:24;1.42;;;0.52;;
75062;SDS011;63981;51.052;13.754;2023-02-19T15:23:53;3.10;;;0.80;;
75062;SDS011;63981;51.052;13.754;2023-02-19T15:26:22;1.10;;;0.50;;
75062;SDS011;63981;51.052;13.754;2023-02-19T15:28:57;2.17;;;0.70;;
75062;SDS011;63981;51.052;13.754;2023-02-19T15:31:26;1.58;;;0.55;;
75062;SDS011;63981;51.052;13.754;2023-02-19T15:33:53;2.92;;;0.70;;
75062;SDS011;63981;51.052;13.754;2023-02-19T15:36:22;2.53;;;0.63;;
75062;SDS011;63981;51.052;13.754;2023-02-19T15:38:53;3.47;;;0.70;;
75062;SDS011;63981;51.052;13.754;2023-02-19T15:41:21;1.88;;;0.63;;
75062;SDS011;63981;51.052;13.754;2023-02-19T15:44:10;1.98;;;0.57;;
75062;SDS011;63981;51.052;13.754;2023-02-19T15:46:50;1.45;;;0.73;;
75062;SDS011;63981;51.052;13.754;2023-02-19T15:49:22;1.10;;;0.60;;
75062;SDS011;63981;51.052;13.754;2023-02-19T15:52:02;1.63;;;0.68;;
75062;SDS011;63981;51.052;13.754;2023-02-19T15:54:41;2.38;;;0.70;;
75062;SDS011;63981;51.052;13.754;2023-02-19T15:57:16;1.33;;;0.70;;
75062;SDS011;63981;51.052;13.754;2023-02-19T15:59:51;1.42;;;0.57;;
75062;SDS011;63981;51.052;13.754;2023-02-19T16:02:27;2.97;;;1.15;;
75062;SDS011;63981;51.052;13.754;2023-02-19T16:04:54;1.98;;;0.90;;
75062;SDS011;63981;51.052;13.754;2023-02-19T16:10:15;1.75;;;0.70;;
75062;SDS011;63981;51.052;13.754;2023-02-19T16:12:57;2.40;;;0.70;;
75062;SDS011;63981;51.052;13.754;2023-02-19T16:15:29;1.63;;;0.80;;
75062;SDS011;63981;51.052;13.754;2023-02-19T16:17:57;1.38;;;0.50;;
75062;SDS011;63981;51.052;13.754;2023-02-19T16:22:56;4.45;;;0.90;;
75062;SDS011;63981;51.052;13.754;2023-02-19T16:25:27;2.15;;;0.77;;
75062;SDS011;63981;51.052;13.754;2023-02-19T16:27:58;1.38;;;0.73;;
75062;SDS011;63981;51.052;13.754;2023-02-19T16:30:28;2.42;;;1.10;;
75062;SDS011;63981;51.052;13.754;2023-02-19T16:38:58;3.92;;;1.40;;
75062;SDS011;63981;51.052;13.754;2023-02-19T16:46:51;3.30;;;0.93;;
75062;SDS011;63981;51.052;13.754;2023-02-19T16:51:45;2.13;;;0.80;;
75062;SDS011;63981;51.052;13.754;2023-02-19T16:54:12;1.90;;;0.70;;
75062;SDS011;63981;51.052;13.754;2023-02-19T16:56:38;3.35;;;1.02;;
75062;SDS011;63981;51.052;13.754;2023-02-19T16:59:05;4.57;;;1.20;;
75062;SDS011;63981;51.052;13.754;2023-02-19T17:01:37;1.67;;;0.90;;
75062;SDS011;63981;51.052;13.754;2023-02-19T17:04:04;3.78;;;1.08;;
75062;SDS011;63981;51.052;13.754;2023-02-19T17:06:33;3.42;;;1.10;;
75062;SDS011;63981;51.052;13.754;2023-02-19T17:09:06;4.88;;;1.13;;
75062;SDS011;63981;51.052;13.754;2023-02-19T17:11:33;3.53;;;1.10;;
75062;SDS011;63981;51.052;13.754;2023-02-19T17:14:00;2.05;;;1.00;;
75062;SDS011;63981;51.052;13.754;2023-02-19T17:16:28;3.97;;;1.25;;
75062;SDS011;63981;51.052;13.754;2023-02-19T17:18:56;3.00;;;1.33;;
75062;SDS011;63981;51.052;13.754;2023-02-19T17:21:24;2.45;;;1.00;;
75062;SDS011;63981;51.052;13.754;2023-02-19T17:23:52;3.28;;;1.42;;
75062;SDS011;63981;51.052;13.754;2023-02-19T17:26:20;3.45;;;1.20;;
75062;SDS011;63981;51.052;13.754;2023-02-19T17:28:48;3.80;;;1.67;;
75062;SDS011;63981;51.052;13.754;2023-02-19T17:31:15;1.92;;;1.30;;
75062;SDS011;63981;51.052;13.754;2023-02-19T17:33:41;1.05;;;0.80;;
75062;SDS011;63981;51.052;13.754;2023-02-19T17:36:25;3.42;;;1.38;;
75062;SDS011;63981;51.052;13.754;2023-02-19T17:38:55;2.22;;;1.10;;
75062;SDS011;63981;51.052;13.754;2023-02-19T17:41:22;1.85;;;1.50;;
75062;SDS011;63981;51.052;13.754;2023-02-19T17:43:48;2.08;;;1.67;;
75062;SDS011;63981;51.052;13.754;2023-02-19T17:46:19;5.57;;;1.50;;
75062;SDS011;63981;51.052;13.754;2023-02-19T17:48:48;2.78;;;1.52;;
75062;SDS011;63981;51.052;13.754;2023-02-19T17:51:15;2.83;;;1.20;;